Sommer S — WDG3830 — position and weather

sailwx.info

Track history (hours):
 
Tides and Currents Weather Stations Pressure Air Temp Water Temp Dewpoint Dewpoint Depression Visibility Wind Speed Wind Dir Waves Ship Positions

Sommer S

Owner: Shaver Transportation Company, Portland, OR. More information available from US FCC via Universal Licensing System and Coast Guard Vessel Documentation Center.

Last reported at 2017-Mar-26 18:34 UTC. Time now 2017-Mar-26 19:03 UTC.
Position N 45°38' W 122°43'.

Length 25 m; draft 16.5 m.

Type: Tug. MMSI: 367530080.

Date/timePositionNaut miles runAvg speedWind from/ knotsBaromVisibWave heightAir tempDewpointWater temp
2017-Mar-26 18:34N 45°38' W 122°43'2 1.5
2017-Mar-26 17:33N 45°39' W 122°45'1 1.0
2017-Mar-26 16:34N 45°39' W 122°44'1 1.0
2017-Mar-26 15:34N 45°39' W 122°45'0 0.0
2017-Mar-26 14:34N 45°39' W 122°45'0 0.3
2017-Mar-26 13:33N 45°39' W 122°45'1 0.8
2017-Mar-26 12:34N 45°38' W 122°44'1 0.8
2017-Mar-26 11:33N 45°39' W 122°45'0 0.4
2017-Mar-26 10:34N 45°39' W 122°45'0 0.4
2017-Mar-26 09:34N 45°39' W 122°45'0 0.3
2017-Mar-26 08:34N 45°39' W 122°45'1 0.6
2017-Mar-26 07:34N 45°39' W 122°46'9 8.6
2017-Mar-26 06:34N 45°48' W 122°47'7 7.4
2017-Mar-26 05:34N 45°55' W 122°48'8 8.3
2017-Mar-26 04:34N 46°03' W 122°53'3 3.4
2017-Mar-26 03:34N 46°05' W 122°56'0 0.0
2017-Mar-26 02:34N 46°05' W 122°56'0 0.0
2017-Mar-26 01:34N 46°05' W 122°56'2 1.8
2017-Mar-26 00:34N 46°06' W 122°58'8 8.4
2017-Mar-25 23:33N 46°11' W 123°08'8 8.1
2017-Mar-25 22:34N 46°09' W 123°19'6 6.5
2017-Mar-25 21:33N 46°13' W 123°26'8 7.8
2017-Mar-25 20:33N 46°15' W 123°36'1010.3
2017-Mar-25 19:34N 46°12' W 123°50'1 0.9
2017-Mar-25 18:33N 46°11' W 123°52'0 0.1
2017-Mar-25 17:34N 46°11' W 123°52'0 0.1
2017-Mar-25 16:34N 46°11' W 123°52'4 3.7
2017-Mar-25 15:34N 46°13' W 123°47'1313.1
2017-Mar-25 14:34N 46°16' W 123°28'1111.3
2017-Mar-25 13:34N 46°09' W 123°15'1313.2
2017-Mar-25 12:34N 46°06' W 122°57'1313.3
2017-Mar-25 11:34N 45°54' W 122°48'1413.7
2017-Mar-25 10:33N 45°40' W 122°46'3 2.9
2017-Mar-25 09:33N 45°38' W 122°43'1 1.2
2017-Mar-25 08:34N 45°39' W 122°45'0 0.2
2017-Mar-25 07:33N 45°39' W 122°45'0 0.0
2017-Mar-25 06:33N 45°39' W 122°45'1 1.1
2017-Mar-25 05:34N 45°39' W 122°46'8 8.3
2017-Mar-25 04:34N 45°48' W 122°47'7 7.2
2017-Mar-25 03:33N 45°55' W 122°48'8 8.2
2017-Mar-25 02:34N 46°03' W 122°53'4 3.6
2017-Mar-25 01:33N 46°05' W 122°56'1 0.9
2017-Mar-25 00:33N 46°06' W 122°57'1 0.9
2017-Mar-24 23:33N 46°05' W 122°56'0 0.0
2017-Mar-24 22:34N 46°05' W 122°56'0 0.0
2017-Mar-24 21:33N 46°05' W 122°56'0 0.0
2017-Mar-24 20:34N 46°05' W 122°56'4 3.7
2017-Mar-24 19:33N 46°03' W 122°53'4 3.9
2017-Mar-24 18:33N 45°59' W 122°50'0 0.1
2017-Mar-24 17:33N 45°59' W 122°50'2 1.5
2017-Mar-24 16:34N 46°00' W 122°51'7 7.1
2017-Mar-24 15:33N 46°06' W 122°57'0 0.4
2017-Mar-24 14:34N 46°06' W 122°57'2 2.3
2017-Mar-24 13:33N 46°05' W 122°55'6 6.4
2017-Mar-24 12:34N 45°59' W 122°50'0 0.0
2017-Mar-24 11:34N 45°59' W 122°50'0 0.0
2017-Mar-24 10:33N 45°59' W 122°50'0 0.0
2017-Mar-24 09:33N 45°59' W 122°50'0 0.0
2017-Mar-24 08:34N 45°59' W 122°50'0 0.0
2017-Mar-24 07:33N 45°59' W 122°50'0 0.0
2017-Mar-24 06:34N 45°59' W 122°50'0 0.0
2017-Mar-24 05:33N 45°59' W 122°50'5 5.1
2017-Mar-24 04:34N 46°04' W 122°53'3 2.9
2017-Mar-24 03:33N 46°06' W 122°57'0 0.2
2017-Mar-24 02:33N 46°06' W 122°57'5 5.1
2017-Mar-24 01:33N 46°02' W 122°53'2 2.4
2017-Mar-24 00:33N 46°04' W 122°54'2 2.0
2017-Mar-23 23:33N 46°05' W 122°56'1 0.7
2017-Mar-23 22:33N 46°06' W 122°57'1 0.5
2017-Mar-23 21:33N 46°06' W 122°56'0 0.4
2017-Mar-23 20:33N 46°05' W 122°55'1 1.4
2017-Mar-23 19:33N 46°06' W 122°57'1 0.7
2017-Mar-23 18:33N 46°06' W 122°56'0 0.2
2017-Mar-23 17:33N 46°06' W 122°57'9 8.8
2017-Mar-23 16:33N 45°58' W 122°50'1413.5
2017-Mar-23 15:33N 45°45' W 122°46'1010.5
2017-Mar-23 14:33N 45°35' W 122°45'4 4.2
2017-Mar-23 13:33N 45°32' W 122°40'3 3.3
2017-Mar-23 12:33N 45°34' W 122°44'2 1.5
2017-Mar-23 11:33N 45°35' W 122°46'4 3.8
2017-Mar-23 10:33N 45°39' W 122°45'1 0.9
2017-Mar-23 09:33N 45°39' W 122°46'6 5.6
2017-Mar-23 08:33N 45°34' W 122°44'0 0.0
2017-Mar-23 07:33N 45°34' W 122°44'0 0.0
2017-Mar-23 06:33N 45°34' W 122°44'0 0.0
2017-Mar-23 05:33N 45°34' W 122°44'0 0.0
2017-Mar-23 04:33N 45°34' W 122°44'0 0.1
2017-Mar-23 03:33N 45°34' W 122°44'0 0.0
2017-Mar-23 02:33N 45°34' W 122°44'0 0.3
2017-Mar-23 01:33N 45°34' W 122°44'0 0.0
2017-Mar-23 00:33N 45°34' W 122°44'3 2.6
2017-Mar-22 23:33N 45°36' W 122°46'2 2.3
2017-Mar-22 22:33N 45°38' W 122°47'3 2.7
2017-Mar-22 21:34N 45°38' W 122°44'0 0.0
2017-Mar-22 20:33N 45°38' W 122°44'0 0.0
2017-Mar-22 19:33N 45°38' W 122°44'1 1.0
2017-Mar-22 18:33N 45°38' W 122°42'6 5.5
2017-Mar-22 17:33N 45°43' W 122°46'8 8.3
2017-Mar-22 16:33N 45°51' W 122°47'7 6.8
2017-Mar-22 15:33N 45°58' W 122°49'7 6.9
2017-Mar-22 14:33N 46°04' W 122°53'2 2.2
2017-Mar-22 13:33N 46°05' W 122°56'0 0.0
2017-Mar-22 12:33N 46°05' W 122°56'0 0.0
2017-Mar-22 11:33N 46°05' W 122°56'0 0.0
2017-Mar-22 10:33N 46°05' W 122°56'0 0.0
2017-Mar-22 09:33N 46°05' W 122°56'1 0.9
2017-Mar-22 08:33N 46°06' W 122°57'0 0.3
2017-Mar-22 07:33N 46°06' W 122°57'1 0.9
2017-Mar-22 06:33N 46°05' W 122°56'0 0.0
2017-Mar-22 05:33N 46°05' W 122°56'0 0.0
2017-Mar-22 04:33N 46°05' W 122°56'0 0.0
2017-Mar-22 03:33N 46°05' W 122°56'0 0.0
2017-Mar-22 02:33N 46°05' W 122°56'0 0.0
2017-Mar-22 01:33N 46°05' W 122°56'0 0.0
2017-Mar-22 00:33N 46°05' W 122°56'0 0.0
2017-Mar-21 23:33N 46°05' W 122°56'1 0.7
2017-Mar-21 22:33N 46°06' W 122°57'0 0.1
2017-Mar-21 21:33N 46°06' W 122°56'2 1.9
2017-Mar-21 20:33N 46°05' W 122°54'1313.4
2017-Mar-21 19:33N 45°52' W 122°47'1313.2
2017-Mar-21 18:33N 45°39' W 122°45'3 2.9
2017-Mar-21 17:33N 45°38' W 122°42'1 1.3
2017-Mar-21 16:33N 45°38' W 122°43'0 0.1
2017-Mar-21 15:33N 45°38' W 122°44'0 0.2
2017-Mar-21 14:33N 45°38' W 122°44'0 0.1
2017-Mar-21 13:33N 45°38' W 122°44'0 0.3
2017-Mar-21 12:33N 45°39' W 122°43'1 1.0
2017-Mar-21 11:33N 45°39' W 122°45'0 0.4
2017-Mar-21 10:33N 45°38' W 122°44'0 0.5
2017-Mar-21 09:33N 45°38' W 122°44'0 0.0
2017-Mar-21 08:33N 45°38' W 122°44'0 0.0
2017-Mar-21 07:33N 45°38' W 122°44'0 0.0
2017-Mar-21 06:33N 45°38' W 122°44'0 0.0
2017-Mar-21 05:33N 45°38' W 122°44'0 0.0
2017-Mar-21 04:33N 45°38' W 122°44'1 1.1
2017-Mar-21 03:33N 45°38' W 122°42'0 0.0
2017-Mar-21 02:33N 45°38' W 122°42'0 0.3
2017-Mar-21 01:33N 45°38' W 122°42'1 1.4
2017-Mar-21 00:33N 45°38' W 122°44'0 0.0
2017-Mar-20 23:33N 45°38' W 122°44'0 0.1
2017-Mar-20 22:33N 45°38' W 122°44'2 1.5
2017-Mar-20 21:33N 45°38' W 122°42'1 1.5
2017-Mar-20 20:33N 45°38' W 122°44'1 1.1
2017-Mar-20 19:33N 45°39' W 122°45'0 0.0
2017-Mar-20 18:33N 45°39' W 122°45'0 0.0
2017-Mar-20 17:33N 45°39' W 122°45'2 2.5
2017-Mar-20 16:33N 45°38' W 122°42'2 2.0
2017-Mar-20 15:33N 45°39' W 122°44'0 0.3
2017-Mar-20 14:33N 45°39' W 122°45'0 0.0
2017-Mar-20 13:33N 45°39' W 122°45'0 0.0
2017-Mar-20 12:33N 45°39' W 122°45'0 0.0
2017-Mar-20 11:33N 45°39' W 122°45'0 0.4
2017-Mar-20 10:33N 45°39' W 122°45'9 9.1
2017-Mar-20 09:33N 45°48' W 122°47'9 8.9
2017-Mar-20 08:33N 45°57' W 122°48'8 8.5
2017-Mar-20 07:33N 46°04' W 122°54'7 7.3
2017-Mar-20 06:33N 46°09' W 123°02'4 3.5
2017-Mar-20 05:33N 46°11' W 123°07'0 0.3
2017-Mar-20 04:33N 46°11' W 123°07'0 0.3
2017-Mar-20 03:33N 46°11' W 123°07'6 6.3
2017-Mar-20 02:33N 46°07' W 122°60'4 4.1
2017-Mar-20 01:33N 46°05' W 122°55'2 2.0
2017-Mar-20 00:34N 46°06' W 122°57'1 0.9
2017-Mar-19 23:33N 46°06' W 122°56'8 7.6
2017-Mar-19 22:33N 45°59' W 122°50'0 0.0
2017-Mar-19 21:34N 45°59' W 122°50'0 0.0
2017-Mar-19 20:34N 45°59' W 122°50'0 0.0
2017-Mar-19 19:34N 45°59' W 122°50'0 0.0
2017-Mar-19 18:34N 45°59' W 122°50'0 0.0
2017-Mar-19 17:33N 45°59' W 122°50'0 0.0
2017-Mar-19 16:33N 45°59' W 122°50'0 0.0
2017-Mar-19 15:33N 45°59' W 122°50'0 0.0
2017-Mar-19 14:33N 45°59' W 122°50'0 0.0
2017-Mar-19 13:34N 45°59' W 122°50'0 0.0
2017-Mar-19 12:34N 45°59' W 122°50'0 0.3
2017-Mar-19 11:34N 45°59' W 122°50'0 0.1
2017-Mar-19 10:34N 45°59' W 122°50'0 0.4
2017-Mar-19 09:34N 45°59' W 122°50'0 0.0
2017-Mar-19 08:33N 45°59' W 122°50'0 0.0
2017-Mar-19 07:34N 45°59' W 122°50'0 0.0
2017-Mar-19 06:33N 45°59' W 122°50'0 0.0
2017-Mar-19 05:34N 45°59' W 122°50'0 0.0
2017-Mar-19 04:34N 45°59' W 122°50'0 0.0
2017-Mar-19 03:33N 45°59' W 122°50'3 2.5
2017-Mar-19 02:34N 46°02' W 122°52'5 5.1
2017-Mar-19 01:34N 46°06' W 122°56'0 0.0
2017-Mar-19 00:34N 46°06' W 122°56'1 0.6
2017-Mar-18 23:34N 46°06' W 122°57'1 1.0
2017-Mar-18 22:34N 46°05' W 122°56'0 0.0
2017-Mar-18 21:33N 46°05' W 122°56'0 0.0
2017-Mar-18 20:34N 46°05' W 122°56'1110.5
2017-Mar-18 19:33N 45°56' W 122°48'1212.2
2017-Mar-18 18:33N 45°44' W 122°46'6 5.7
2017-Mar-18 17:33N 45°39' W 122°45'0 0.0
2017-Mar-18 16:33N 45°39' W 122°45'0 0.0
2017-Mar-18 15:33N 45°39' W 122°45'1 0.6
2017-Mar-18 14:33N 45°38' W 122°44'1 0.8
2017-Mar-18 13:33N 45°39' W 122°45'2 1.9
2017-Mar-18 12:33N 45°38' W 122°42'4 3.6
2017-Mar-18 11:33N 45°37' W 122°47'4 3.9
2017-Mar-18 10:33N 45°34' W 122°44'0 0.3
2017-Mar-18 09:33N 45°34' W 122°44'0 0.0
2017-Mar-18 08:33N 45°34' W 122°44'0 0.0
2017-Mar-18 07:33N 45°34' W 122°44'0 0.0
2017-Mar-18 06:34N 45°34' W 122°44'0 0.0
2017-Mar-18 05:34N 45°34' W 122°44'1 0.8
2017-Mar-18 04:33N 45°34' W 122°44'4 4.0
2017-Mar-18 03:33N 45°38' W 122°42'1 1.2
2017-Mar-18 02:34N 45°38' W 122°43'0 0.2
2017-Mar-18 01:33N 45°38' W 122°44'0 0.0
2017-Mar-18 00:33N 45°38' W 122°44'0 0.0
2017-Mar-17 23:33N 45°38' W 122°44'0 0.0
2017-Mar-17 22:33N 45°38' W 122°44'0 0.0
2017-Mar-17 21:33N 45°38' W 122°44'1 0.6
2017-Mar-17 20:33N 45°38' W 122°43'1 1.4
2017-Mar-17 19:33N 45°39' W 122°45'1 0.7
2017-Mar-17 18:33N 45°38' W 122°44'1 0.9
2017-Mar-17 17:33N 45°39' W 122°45'0 0.0
2017-Mar-17 16:33N 45°39' W 122°45'0 0.0
2017-Mar-17 15:33N 45°39' W 122°45'0 0.0
2017-Mar-17 14:33N 45°39' W 122°45'1 1.1
2017-Mar-17 13:33N 45°38' W 122°44'1 0.5
2017-Mar-17 12:33N 45°38' W 122°43'0 0.4
2017-Mar-17 11:33N 45°38' W 122°42'0 0.4
2017-Mar-17 10:33N 45°38' W 122°43'0 0.0
2017-Mar-17 09:33N 45°38' W 122°43'2 1.6
2017-Mar-17 08:33N 45°39' W 122°45'3 3.1
2017-Mar-17 07:33N 45°36' W 122°47'1 0.9
2017-Mar-17 06:33N 45°37' W 122°47'1 0.9
2017-Mar-17 05:33N 45°36' W 122°47'4 3.5
2017-Mar-17 04:33N 45°40' W 122°45'0 0.0
2017-Mar-17 03:33N 45°40' W 122°45'5 5.3
2017-Mar-17 02:33N 45°45' W 122°46'9 8.6
2017-Mar-17 01:33N 45°53' W 122°48'8 8.5
2017-Mar-17 00:33N 46°01' W 122°52'0 0.5
2017-Mar-16 23:33N 46°02' W 122°52'0 0.0
2017-Mar-16 22:33N 46°02' W 122°52'0 0.0
2017-Mar-16 21:33N 46°02' W 122°52'2 2.3
2017-Mar-16 20:33N 46°04' W 122°53'2 2.5
2017-Mar-16 19:33N 46°02' W 122°52'  
Track history (hours):
 
Tides and Currents Weather Stations Pressure Air Temp Water Temp Dewpoint Dewpoint Depression Visibility Wind Speed Wind Dir Waves Ship Positions

Sommer S

Owner: Shaver Transportation Company, Portland, OR. More information available from US FCC via Universal Licensing System and Coast Guard Vessel Documentation Center.

Last reported at 2017-Mar-26 18:34 UTC. Time now 2017-Mar-26 19:03 UTC.
Position N 45°38' W 122°43'.

Length 25 m; draft 16.5 m.

Type: Tug. MMSI: 367530080.

Date/timePositionNaut miles runAvg speedWind from/ knotsBaromVisibWave heightAir tempDewpointWater temp
2017-Mar-26 18:34N 45°38' W 122°43'2 1.5
2017-Mar-26 17:33N 45°39' W 122°45'1 1.0
2017-Mar-26 16:34N 45°39' W 122°44'1 1.0
2017-Mar-26 15:34N 45°39' W 122°45'0 0.0
2017-Mar-26 14:34N 45°39' W 122°45'0 0.3
2017-Mar-26 13:33N 45°39' W 122°45'1 0.8
2017-Mar-26 12:34N 45°38' W 122°44'1 0.8
2017-Mar-26 11:33N 45°39' W 122°45'0 0.4
2017-Mar-26 10:34N 45°39' W 122°45'0 0.4
2017-Mar-26 09:34N 45°39' W 122°45'0 0.3
2017-Mar-26 08:34N 45°39' W 122°45'1 0.6
2017-Mar-26 07:34N 45°39' W 122°46'9 8.6
2017-Mar-26 06:34N 45°48' W 122°47'7 7.4
2017-Mar-26 05:34N 45°55' W 122°48'8 8.3
2017-Mar-26 04:34N 46°03' W 122°53'3 3.4
2017-Mar-26 03:34N 46°05' W 122°56'0 0.0
2017-Mar-26 02:34N 46°05' W 122°56'0 0.0
2017-Mar-26 01:34N 46°05' W 122°56'2 1.8
2017-Mar-26 00:34N 46°06' W 122°58'8 8.4
2017-Mar-25 23:33N 46°11' W 123°08'8 8.1
2017-Mar-25 22:34N 46°09' W 123°19'6 6.5
2017-Mar-25 21:33N 46°13' W 123°26'8 7.8
2017-Mar-25 20:33N 46°15' W 123°36'1010.3
2017-Mar-25 19:34N 46°12' W 123°50'1 0.9
2017-Mar-25 18:33N 46°11' W 123°52'0 0.1
2017-Mar-25 17:34N 46°11' W 123°52'0 0.1
2017-Mar-25 16:34N 46°11' W 123°52'4 3.7
2017-Mar-25 15:34N 46°13' W 123°47'1313.1
2017-Mar-25 14:34N 46°16' W 123°28'1111.3
2017-Mar-25 13:34N 46°09' W 123°15'1313.2
2017-Mar-25 12:34N 46°06' W 122°57'1313.3
2017-Mar-25 11:34N 45°54' W 122°48'1413.7
2017-Mar-25 10:33N 45°40' W 122°46'3 2.9
2017-Mar-25 09:33N 45°38' W 122°43'1 1.2
2017-Mar-25 08:34N 45°39' W 122°45'0 0.2
2017-Mar-25 07:33N 45°39' W 122°45'0 0.0
2017-Mar-25 06:33N 45°39' W 122°45'1 1.1
2017-Mar-25 05:34N 45°39' W 122°46'8 8.3
2017-Mar-25 04:34N 45°48' W 122°47'7 7.2
2017-Mar-25 03:33N 45°55' W 122°48'8 8.2
2017-Mar-25 02:34N 46°03' W 122°53'4 3.6
2017-Mar-25 01:33N 46°05' W 122°56'1 0.9
2017-Mar-25 00:33N 46°06' W 122°57'1 0.9
2017-Mar-24 23:33N 46°05' W 122°56'0 0.0
2017-Mar-24 22:34N 46°05' W 122°56'0 0.0
2017-Mar-24 21:33N 46°05' W 122°56'0 0.0
2017-Mar-24 20:34N 46°05' W 122°56'4 3.7
2017-Mar-24 19:33N 46°03' W 122°53'4 3.9
2017-Mar-24 18:33N 45°59' W 122°50'0 0.1
2017-Mar-24 17:33N 45°59' W 122°50'2 1.5
2017-Mar-24 16:34N 46°00' W 122°51'7 7.1
2017-Mar-24 15:33N 46°06' W 122°57'0 0.4
2017-Mar-24 14:34N 46°06' W 122°57'2 2.3
2017-Mar-24 13:33N 46°05' W 122°55'6 6.4
2017-Mar-24 12:34N 45°59' W 122°50'0 0.0
2017-Mar-24 11:34N 45°59' W 122°50'0 0.0
2017-Mar-24 10:33N 45°59' W 122°50'0 0.0
2017-Mar-24 09:33N 45°59' W 122°50'0 0.0
2017-Mar-24 08:34N 45°59' W 122°50'0 0.0
2017-Mar-24 07:33N 45°59' W 122°50'0 0.0
2017-Mar-24 06:34N 45°59' W 122°50'0 0.0
2017-Mar-24 05:33N 45°59' W 122°50'5 5.1
2017-Mar-24 04:34N 46°04' W 122°53'3 2.9
2017-Mar-24 03:33N 46°06' W 122°57'0 0.2
2017-Mar-24 02:33N 46°06' W 122°57'5 5.1
2017-Mar-24 01:33N 46°02' W 122°53'2 2.4
2017-Mar-24 00:33N 46°04' W 122°54'2 2.0
2017-Mar-23 23:33N 46°05' W 122°56'1 0.7
2017-Mar-23 22:33N 46°06' W 122°57'1 0.5
2017-Mar-23 21:33N 46°06' W 122°56'0 0.4
2017-Mar-23 20:33N 46°05' W 122°55'1 1.4
2017-Mar-23 19:33N 46°06' W 122°57'1 0.7
2017-Mar-23 18:33N 46°06' W 122°56'0 0.2
2017-Mar-23 17:33N 46°06' W 122°57'9 8.8
2017-Mar-23 16:33N 45°58' W 122°50'1413.5
2017-Mar-23 15:33N 45°45' W 122°46'1010.5
2017-Mar-23 14:33N 45°35' W 122°45'4 4.2
2017-Mar-23 13:33N 45°32' W 122°40'3 3.3
2017-Mar-23 12:33N 45°34' W 122°44'2 1.5
2017-Mar-23 11:33N 45°35' W 122°46'4 3.8
2017-Mar-23 10:33N 45°39' W 122°45'1 0.9
2017-Mar-23 09:33N 45°39' W 122°46'6 5.6
2017-Mar-23 08:33N 45°34' W 122°44'0 0.0
2017-Mar-23 07:33N 45°34' W 122°44'0 0.0
2017-Mar-23 06:33N 45°34' W 122°44'0 0.0
2017-Mar-23 05:33N 45°34' W 122°44'0 0.0
2017-Mar-23 04:33N 45°34' W 122°44'0 0.1
2017-Mar-23 03:33N 45°34' W 122°44'0 0.0
2017-Mar-23 02:33N 45°34' W 122°44'0 0.3
2017-Mar-23 01:33N 45°34' W 122°44'0 0.0
2017-Mar-23 00:33N 45°34' W 122°44'3 2.6
2017-Mar-22 23:33N 45°36' W 122°46'2 2.3
2017-Mar-22 22:33N 45°38' W 122°47'3 2.7
2017-Mar-22 21:34N 45°38' W 122°44'0 0.0
2017-Mar-22 20:33N 45°38' W 122°44'0 0.0
2017-Mar-22 19:33N 45°38' W 122°44'1 1.0
2017-Mar-22 18:33N 45°38' W 122°42'6 5.5
2017-Mar-22 17:33N 45°43' W 122°46'8 8.3
2017-Mar-22 16:33N 45°51' W 122°47'7 6.8
2017-Mar-22 15:33N 45°58' W 122°49'7 6.9
2017-Mar-22 14:33N 46°04' W 122°53'2 2.2
2017-Mar-22 13:33N 46°05' W 122°56'0 0.0
2017-Mar-22 12:33N 46°05' W 122°56'0 0.0
2017-Mar-22 11:33N 46°05' W 122°56'0 0.0
2017-Mar-22 10:33N 46°05' W 122°56'0 0.0
2017-Mar-22 09:33N 46°05' W 122°56'1 0.9
2017-Mar-22 08:33N 46°06' W 122°57'0 0.3
2017-Mar-22 07:33N 46°06' W 122°57'1 0.9
2017-Mar-22 06:33N 46°05' W 122°56'0 0.0
2017-Mar-22 05:33N 46°05' W 122°56'0 0.0
2017-Mar-22 04:33N 46°05' W 122°56'0 0.0
2017-Mar-22 03:33N 46°05' W 122°56'0 0.0
2017-Mar-22 02:33N 46°05' W 122°56'0 0.0
2017-Mar-22 01:33N 46°05' W 122°56'0 0.0
2017-Mar-22 00:33N 46°05' W 122°56'0 0.0
2017-Mar-21 23:33N 46°05' W 122°56'1 0.7
2017-Mar-21 22:33N 46°06' W 122°57'0 0.1
2017-Mar-21 21:33N 46°06' W 122°56'2 1.9
2017-Mar-21 20:33N 46°05' W 122°54'1313.4
2017-Mar-21 19:33N 45°52' W 122°47'1313.2
2017-Mar-21 18:33N 45°39' W 122°45'3 2.9
2017-Mar-21 17:33N 45°38' W 122°42'1 1.3
2017-Mar-21 16:33N 45°38' W 122°43'0 0.1
2017-Mar-21 15:33N 45°38' W 122°44'0 0.2
2017-Mar-21 14:33N 45°38' W 122°44'0 0.1
2017-Mar-21 13:33N 45°38' W 122°44'0 0.3
2017-Mar-21 12:33N 45°39' W 122°43'1 1.0
2017-Mar-21 11:33N 45°39' W 122°45'0 0.4
2017-Mar-21 10:33N 45°38' W 122°44'0 0.5
2017-Mar-21 09:33N 45°38' W 122°44'0 0.0
2017-Mar-21 08:33N 45°38' W 122°44'0 0.0
2017-Mar-21 07:33N 45°38' W 122°44'0 0.0
2017-Mar-21 06:33N 45°38' W 122°44'0 0.0
2017-Mar-21 05:33N 45°38' W 122°44'0 0.0
2017-Mar-21 04:33N 45°38' W 122°44'1 1.1
2017-Mar-21 03:33N 45°38' W 122°42'0 0.0
2017-Mar-21 02:33N 45°38' W 122°42'0 0.3
2017-Mar-21 01:33N 45°38' W 122°42'1 1.4
2017-Mar-21 00:33N 45°38' W 122°44'0 0.0
2017-Mar-20 23:33N 45°38' W 122°44'0 0.1
2017-Mar-20 22:33N 45°38' W 122°44'2 1.5
2017-Mar-20 21:33N 45°38' W 122°42'1 1.5
2017-Mar-20 20:33N 45°38' W 122°44'1 1.1
2017-Mar-20 19:33N 45°39' W 122°45'0 0.0
2017-Mar-20 18:33N 45°39' W 122°45'0 0.0
2017-Mar-20 17:33N 45°39' W 122°45'2 2.5
2017-Mar-20 16:33N 45°38' W 122°42'2 2.0
2017-Mar-20 15:33N 45°39' W 122°44'0 0.3
2017-Mar-20 14:33N 45°39' W 122°45'0 0.0
2017-Mar-20 13:33N 45°39' W 122°45'0 0.0
2017-Mar-20 12:33N 45°39' W 122°45'0 0.0
2017-Mar-20 11:33N 45°39' W 122°45'0 0.4
2017-Mar-20 10:33N 45°39' W 122°45'9 9.1
2017-Mar-20 09:33N 45°48' W 122°47'9 8.9
2017-Mar-20 08:33N 45°57' W 122°48'8 8.5
2017-Mar-20 07:33N 46°04' W 122°54'7 7.3
2017-Mar-20 06:33N 46°09' W 123°02'4 3.5
2017-Mar-20 05:33N 46°11' W 123°07'0 0.3
2017-Mar-20 04:33N 46°11' W 123°07'0 0.3
2017-Mar-20 03:33N 46°11' W 123°07'6 6.3
2017-Mar-20 02:33N 46°07' W 122°60'4 4.1
2017-Mar-20 01:33N 46°05' W 122°55'2 2.0
2017-Mar-20 00:34N 46°06' W 122°57'1 0.9
2017-Mar-19 23:33N 46°06' W 122°56'8 7.6
2017-Mar-19 22:33N 45°59' W 122°50'0 0.0
2017-Mar-19 21:34N 45°59' W 122°50'0 0.0
2017-Mar-19 20:34N 45°59' W 122°50'0 0.0
2017-Mar-19 19:34N 45°59' W 122°50'0 0.0
2017-Mar-19 18:34N 45°59' W 122°50'0 0.0
2017-Mar-19 17:33N 45°59' W 122°50'0 0.0
2017-Mar-19 16:33N 45°59' W 122°50'0 0.0
2017-Mar-19 15:33N 45°59' W 122°50'0 0.0
2017-Mar-19 14:33N 45°59' W 122°50'0 0.0
2017-Mar-19 13:34N 45°59' W 122°50'0 0.0
2017-Mar-19 12:34N 45°59' W 122°50'0 0.3
2017-Mar-19 11:34N 45°59' W 122°50'0 0.1
2017-Mar-19 10:34N 45°59' W 122°50'0 0.4
2017-Mar-19 09:34N 45°59' W 122°50'0 0.0
2017-Mar-19 08:33N 45°59' W 122°50'0 0.0
2017-Mar-19 07:34N 45°59' W 122°50'0 0.0
2017-Mar-19 06:33N 45°59' W 122°50'0 0.0
2017-Mar-19 05:34N 45°59' W 122°50'0 0.0
2017-Mar-19 04:34N 45°59' W 122°50'0 0.0
2017-Mar-19 03:33N 45°59' W 122°50'3 2.5
2017-Mar-19 02:34N 46°02' W 122°52'5 5.1
2017-Mar-19 01:34N 46°06' W 122°56'0 0.0
2017-Mar-19 00:34N 46°06' W 122°56'1 0.6
2017-Mar-18 23:34N 46°06' W 122°57'1 1.0
2017-Mar-18 22:34N 46°05' W 122°56'0 0.0
2017-Mar-18 21:33N 46°05' W 122°56'0 0.0
2017-Mar-18 20:34N 46°05' W 122°56'1110.5
2017-Mar-18 19:33N 45°56' W 122°48'1212.2
2017-Mar-18 18:33N 45°44' W 122°46'6 5.7
2017-Mar-18 17:33N 45°39' W 122°45'0 0.0
2017-Mar-18 16:33N 45°39' W 122°45'0 0.0
2017-Mar-18 15:33N 45°39' W 122°45'1 0.6
2017-Mar-18 14:33N 45°38' W 122°44'1 0.8
2017-Mar-18 13:33N 45°39' W 122°45'2 1.9
2017-Mar-18 12:33N 45°38' W 122°42'4 3.6
2017-Mar-18 11:33N 45°37' W 122°47'4 3.9
2017-Mar-18 10:33N 45°34' W 122°44'0 0.3
2017-Mar-18 09:33N 45°34' W 122°44'0 0.0
2017-Mar-18 08:33N 45°34' W 122°44'0 0.0
2017-Mar-18 07:33N 45°34' W 122°44'0 0.0
2017-Mar-18 06:34N 45°34' W 122°44'0 0.0
2017-Mar-18 05:34N 45°34' W 122°44'1 0.8
2017-Mar-18 04:33N 45°34' W 122°44'4 4.0
2017-Mar-18 03:33N 45°38' W 122°42'1 1.2
2017-Mar-18 02:34N 45°38' W 122°43'0 0.2
2017-Mar-18 01:33N 45°38' W 122°44'0 0.0
2017-Mar-18 00:33N 45°38' W 122°44'0 0.0
2017-Mar-17 23:33N 45°38' W 122°44'0 0.0
2017-Mar-17 22:33N 45°38' W 122°44'0 0.0
2017-Mar-17 21:33N 45°38' W 122°44'1 0.6
2017-Mar-17 20:33N 45°38' W 122°43'1 1.4
2017-Mar-17 19:33N 45°39' W 122°45'1 0.7
2017-Mar-17 18:33N 45°38' W 122°44'1 0.9
2017-Mar-17 17:33N 45°39' W 122°45'0 0.0
2017-Mar-17 16:33N 45°39' W 122°45'0 0.0
2017-Mar-17 15:33N 45°39' W 122°45'0 0.0
2017-Mar-17 14:33N 45°39' W 122°45'1 1.1
2017-Mar-17 13:33N 45°38' W 122°44'1 0.5
2017-Mar-17 12:33N 45°38' W 122°43'0 0.4
2017-Mar-17 11:33N 45°38' W 122°42'0 0.4
2017-Mar-17 10:33N 45°38' W 122°43'0 0.0
2017-Mar-17 09:33N 45°38' W 122°43'2 1.6
2017-Mar-17 08:33N 45°39' W 122°45'3 3.1
2017-Mar-17 07:33N 45°36' W 122°47'1 0.9
2017-Mar-17 06:33N 45°37' W 122°47'1 0.9
2017-Mar-17 05:33N 45°36' W 122°47'4 3.5
2017-Mar-17 04:33N 45°40' W 122°45'0 0.0
2017-Mar-17 03:33N 45°40' W 122°45'5 5.3
2017-Mar-17 02:33N 45°45' W 122°46'9 8.6
2017-Mar-17 01:33N 45°53' W 122°48'8 8.5
2017-Mar-17 00:33N 46°01' W 122°52'0 0.5
2017-Mar-16 23:33N 46°02' W 122°52'0 0.0
2017-Mar-16 22:33N 46°02' W 122°52'0 0.0
2017-Mar-16 21:33N 46°02' W 122°52'2 2.3
2017-Mar-16 20:33N 46°04' W 122°53'2 2.5
2017-Mar-16 19:33N 46°02' W 122°52'  

Dump ship's entire track history